This is the latest recevied weather packets stored in our database for station/object PY2OAL-13. If no packets are shown the sender has not sent any weather packets the latest 10 day(s).
| Time | Temp. | Humidity | Pressure | Rain* | Wind** | Luminosity | Snow |
|---|---|---|---|---|---|---|---|
| 1777516502 | 0° C | - | 0 hPa | - | - | - | - |
| 1777514702 | 0° C | - | 0 hPa | - | - | - | - |
| 1777458905 | 22.22° C | 85% | 1063.4 hPa | - | - | - | - |
| 1777455305 | 21.67° C | 85% | 1062.9 hPa | - | - | - | - |
| 1777453504 | 21.67° C | 84% | 1062.3 hPa | - | - | - | - |
| 1777451704 | 21.67° C | 84% | 1061.9 hPa | - | - | - | - |
| 1777449904 | 21.67° C | 84% | 1061.6 hPa | - | - | - | - |
| 1777448104 | 21.67° C | 84% | 1061.8 hPa | - | - | - | - |
| 1777446305 | 21.67° C | 83% | 1061.8 hPa | - | - | - | - |
| 1777444504 | 22.22° C | 82% | 1061.8 hPa | - | - | - | - |
| 1777442705 | 22.22° C | 82% | 1061.9 hPa | - | - | - | - |
| 1777440905 | 22.78° C | 82% | 1062.1 hPa | - | - | - | - |
| 1777439104 | 22.78° C | 82% | 1062.4 hPa | - | - | - | - |
| 1777437304 | 23.33° C | 81% | 1062.9 hPa | - | - | - | - |
| 1777431904 | 23.89° C | 80% | 1063.8 hPa | - | - | - | - |
| 1777426505 | 24.44° C | 80% | 1064 hPa | - | - | - | - |
| 1777412105 | 26.11° C | 71% | 1062.3 hPa | - | - | - | - |
| 1777406704 | 28.33° C | 60% | 1062.2 hPa | - | - | - | - |
| 1777404904 | 30° C | 55% | 1062.1 hPa | - | - | - | - |
| 1777397705 | 31.11° C | 51% | 1062.3 hPa | - | - | - | - |
| 1777383305 | 27.22° C | 68% | 1065.3 hPa | - | - | - | - |
| 1777379709 | 25° C | 78% | 1065.3 hPa | - | - | - | - |
| 1777377904 | 24.44° C | 82% | 1064.9 hPa | - | - | - | - |
| 1777372504 | 22.22° C | 92% | 1064 hPa | - | - | - | - |
| 1777363505 | 21.67° C | 90% | 1062.5 hPa | - | - | - | - |
* Rain since midnight (hover to see other rain measurements)
** Current wind speed in m/s (hover to see current wind gust speed)